createdAt,value
2018-07-11T00:01:56.436Z,3.13
2018-07-11T00:04:27.670Z,3.33
2018-07-11T00:06:57.120Z,2.73
2018-07-11T00:09:27.612Z,3.10
2018-07-11T00:11:57.732Z,3.83
2018-07-11T00:14:28.013Z,3.30
2018-07-11T00:17:03.175Z,2.90
2018-07-11T00:19:33.662Z,2.83
2018-07-11T00:22:03.438Z,3.50
2018-07-11T00:24:34.214Z,2.90
2018-07-11T00:27:04.070Z,3.00
2018-07-11T00:29:34.617Z,4.40
2018-07-11T00:32:05.613Z,3.10
2018-07-11T00:34:37.100Z,3.60
2018-07-11T00:37:06.692Z,3.23
2018-07-11T00:39:37.793Z,3.30
2018-07-11T00:42:07.646Z,5.13
2018-07-11T00:44:37.118Z,4.37
2018-07-11T00:47:08.594Z,3.93
2018-07-11T00:49:39.626Z,4.67
2018-07-11T00:52:09.898Z,3.20
2018-07-11T00:54:39.554Z,4.60
2018-07-11T00:57:09.629Z,3.50
2018-07-11T00:59:40.596Z,4.80
2018-07-11T01:02:10.593Z,4.10
2018-07-11T01:04:39.998Z,5.87
2018-07-11T01:07:09.880Z,5.00
2018-07-11T01:09:41.971Z,4.23
2018-07-11T01:12:12.197Z,3.57
2018-07-11T01:14:43.869Z,4.27
2018-07-11T01:17:19.256Z,6.47
2018-07-11T01:19:51.245Z,6.60
2018-07-11T01:22:21.954Z,4.50
2018-07-11T01:24:52.316Z,4.57
2018-07-11T01:27:21.878Z,4.90
2018-07-11T01:29:51.890Z,5.03
2018-07-11T01:32:22.066Z,5.23
2018-07-11T01:34:52.893Z,4.13
2018-07-11T01:37:22.688Z,4.97
2018-07-11T01:39:53.095Z,5.33
2018-07-11T01:42:23.518Z,4.87
2018-07-11T01:44:54.106Z,5.90
2018-07-11T01:47:24.414Z,5.47
2018-07-11T01:49:54.120Z,6.40
2018-07-11T01:52:34.610Z,6.73
2018-07-11T01:55:05.868Z,5.87
2018-07-11T01:57:35.871Z,5.60
2018-07-11T02:00:06.621Z,7.80
2018-07-11T02:02:37.407Z,8.33
2018-07-11T02:05:08.470Z,9.43
2018-07-11T02:07:38.318Z,7.17
2018-07-11T02:10:09.467Z,8.47
2018-07-11T02:12:40.293Z,6.57
2018-07-11T02:15:10.594Z,8.77
2018-07-11T02:17:41.350Z,7.77
2018-07-11T02:20:15.394Z,8.00
2018-07-11T02:22:47.650Z,7.67
2018-07-11T02:25:18.408Z,8.80
2018-07-11T02:27:49.501Z,7.40
2018-07-11T02:30:19.749Z,8.90
2018-07-11T02:32:50.490Z,9.00
2018-07-11T02:35:20.669Z,8.60
2018-07-11T02:37:50.334Z,8.10
2018-07-11T02:40:20.150Z,10.13
2018-07-11T02:42:49.781Z,9.33
2018-07-11T02:45:19.610Z,8.90
2018-07-11T02:47:50.573Z,11.17
2018-07-11T02:50:21.381Z,9.17
2018-07-11T02:52:51.150Z,9.33
2018-07-11T02:55:21.899Z,10.60
2018-07-11T02:57:51.771Z,9.63
2018-07-11T03:00:22.270Z,11.03
2018-07-11T03:02:53.316Z,10.50
2018-07-11T03:05:24.526Z,9.20
2018-07-11T03:07:54.063Z,9.57
2018-07-11T03:10:23.952Z,10.03
2018-07-11T03:12:54.358Z,10.43
2018-07-11T03:15:24.782Z,9.00
2018-07-11T03:17:54.697Z,11.13
2018-07-11T03:20:24.491Z,11.50
2018-07-11T03:22:54.445Z,10.87
2018-07-11T03:25:23.866Z,8.97
2018-07-11T03:27:54.642Z,11.00
2018-07-11T03:30:25.519Z,10.23
2018-07-11T03:32:56.194Z,12.27
2018-07-11T03:35:26.572Z,10.67
2018-07-11T03:37:56.675Z,11.40
2018-07-11T03:40:28.262Z,10.93
2018-07-11T03:42:58.445Z,10.70
2018-07-11T03:45:28.228Z,8.53
2018-07-11T03:47:58.155Z,8.67
2018-07-11T03:50:27.643Z,9.10
2018-07-11T03:52:57.557Z,9.90
2018-07-11T03:55:27.378Z,9.83
2018-07-11T03:57:57.081Z,10.30
2018-07-11T04:00:28.143Z,10.07
2018-07-11T04:02:58.013Z,10.87
2018-07-11T04:05:29.660Z,9.97
2018-07-11T04:07:59.382Z,11.83
2018-07-11T04:10:28.546Z,15.67
2018-07-11T04:13:00.707Z,11.67
2018-07-11T04:15:30.293Z,11.87
2018-07-11T04:18:00.202Z,10.43
2018-07-11T04:20:30.390Z,10.20
2018-07-11T04:23:00.246Z,10.10
2018-07-11T04:25:30.374Z,10.10
2018-07-11T04:28:06.388Z,11.30
2018-07-11T04:30:35.870Z,12.43
2018-07-11T04:33:05.793Z,13.87
2018-07-11T04:35:35.378Z,9.87
2018-07-11T04:38:05.486Z,11.97
2018-07-11T04:40:36.154Z,12.03
2018-07-11T04:43:07.413Z,10.40
2018-07-11T04:45:38.562Z,14.53
2018-07-11T04:48:09.356Z,9.40
2018-07-11T04:50:40.371Z,13.27
2018-07-11T04:53:11.653Z,9.87
2018-07-11T04:55:42.723Z,14.67
2018-07-11T04:58:13.009Z,12.80
2018-07-11T05:00:43.206Z,14.03
2018-07-11T05:03:13.629Z,13.13
2018-07-11T05:05:43.274Z,12.40
2018-07-11T05:08:13.438Z,16.67
2018-07-11T05:10:43.313Z,11.17
2018-07-11T05:13:13.474Z,14.83
2018-07-11T05:15:43.566Z,14.43
2018-07-11T05:18:13.627Z,13.93
2018-07-11T05:20:43.936Z,12.93
2018-07-11T05:23:14.959Z,12.33
2018-07-11T05:25:46.057Z,13.50
2018-07-11T05:28:16.282Z,11.50
2018-07-11T05:30:45.454Z,16.30
2018-07-11T05:33:14.930Z,15.03
2018-07-11T05:35:43.794Z,14.70
2018-07-11T05:38:14.806Z,12.27
2018-07-11T05:40:44.868Z,12.33
2018-07-11T05:43:14.458Z,15.37
2018-07-11T05:45:44.462Z,10.97
2018-07-11T05:48:14.714Z,16.37
2018-07-11T05:50:44.131Z,11.83
2018-07-11T05:53:14.534Z,15.53
2018-07-11T05:55:45.268Z,14.10
2018-07-11T05:58:16.011Z,12.27
2018-07-11T06:00:46.159Z,12.60
2018-07-11T06:03:17.380Z,14.10
2018-07-11T06:05:46.633Z,14.17
2018-07-11T06:08:16.337Z,16.80
2018-07-11T06:10:46.629Z,20.33
2018-07-11T06:13:17.039Z,16.00
2018-07-11T06:15:47.190Z,24.03
2018-07-11T06:18:17.340Z,26.77
2018-07-11T06:20:47.230Z,23.60
2018-07-11T06:23:16.993Z,20.67
2018-07-11T06:25:46.502Z,17.63
2018-07-11T06:28:16.021Z,22.47
2018-07-11T06:30:46.134Z,25.03
2018-07-11T06:33:16.962Z,19.53
2018-07-11T06:35:47.334Z,19.77
2018-07-11T06:38:17.278Z,16.33
2018-07-11T06:40:47.135Z,17.87
2018-07-11T06:43:17.927Z,21.73
2018-07-11T06:45:47.615Z,15.97
2018-07-11T06:48:18.102Z,19.53
2018-07-11T06:50:48.786Z,16.17
2018-07-11T06:53:18.216Z,18.43
2018-07-11T06:55:48.246Z,18.87
2018-07-11T06:58:19.305Z,15.13
2018-07-11T07:00:48.647Z,20.60
2018-07-11T07:03:17.745Z,22.17
2018-07-11T07:05:47.430Z,13.23
2018-07-11T07:08:18.238Z,13.77
2018-07-11T07:10:48.970Z,14.10
2018-07-11T07:13:19.163Z,10.43
2018-07-11T07:15:49.351Z,12.50
2018-07-11T07:18:20.027Z,9.87
2018-07-11T07:20:50.866Z,14.70
2018-07-11T07:23:20.650Z,11.13
2018-07-11T07:25:51.158Z,11.93
2018-07-11T07:28:21.913Z,15.30
2018-07-11T07:30:51.695Z,13.60
2018-07-11T07:33:22.727Z,10.70
2018-07-11T07:35:52.599Z,14.60
2018-07-11T07:38:22.008Z,11.93
2018-07-11T07:40:52.234Z,11.27
2018-07-11T07:43:22.643Z,13.40
2018-07-11T07:45:53.188Z,11.00
2018-07-11T07:48:22.374Z,11.43
2018-07-11T07:50:52.630Z,12.80
2018-07-11T07:53:23.085Z,10.00
2018-07-11T07:55:53.979Z,8.13
2018-07-11T07:58:23.998Z,9.57
2018-07-11T08:00:54.787Z,9.47
2018-07-11T08:03:25.390Z,10.90
2018-07-11T08:05:56.106Z,8.53
2018-07-11T08:08:26.417Z,9.50
2018-07-11T08:10:56.450Z,9.27
2018-07-11T08:13:25.693Z,10.13
2018-07-11T08:15:56.426Z,12.33
2018-07-11T08:18:27.547Z,13.43
2018-07-11T08:20:57.719Z,13.60
2018-07-11T08:23:40.345Z,13.90
2018-07-11T08:26:15.870Z,10.00
2018-07-11T08:28:56.544Z,6.70
2018-07-11T08:31:38.510Z,10.10
2018-07-11T08:34:19.344Z,13.27
2018-07-11T08:37:00.525Z,12.43
2018-07-11T08:39:44.812Z,8.60
2018-07-11T08:44:31.316Z,14.60
2018-07-11T08:47:12.329Z,12.37
2018-07-11T08:52:59.153Z,10.90
2018-07-11T08:55:40.317Z,10.20
2018-07-11T08:58:21.622Z,7.97
2018-07-11T09:01:05.870Z,6.27
2018-07-11T09:03:57.283Z,9.23
2018-07-11T09:07:13.646Z,9.03
2018-07-11T09:10:01.366Z,10.90
2018-07-11T09:13:44.822Z,7.83
2018-07-11T09:16:31.499Z,6.97
2018-07-11T09:21:14.942Z,7.40
2018-07-11T09:23:57.301Z,6.47
2018-07-11T09:26:27.279Z,10.70
2018-07-11T09:28:57.612Z,10.83
2018-07-11T09:31:28.409Z,9.40
2018-07-11T09:33:59.664Z,10.00
2018-07-11T09:36:30.203Z,7.23
2018-07-11T09:39:01.529Z,10.87
2018-07-11T09:41:32.090Z,11.17
2018-07-11T09:44:02.794Z,6.43
2018-07-11T09:46:32.407Z,7.23
2018-07-11T09:49:03.467Z,7.90
2018-07-11T09:51:33.504Z,5.83
2018-07-11T09:54:03.346Z,8.00
2018-07-11T09:56:33.911Z,7.57
2018-07-11T09:59:04.379Z,8.77
2018-07-11T10:01:35.333Z,7.50
2018-07-11T10:04:05.975Z,8.50
2018-07-11T10:06:36.182Z,9.83
2018-07-11T10:09:06.838Z,7.73
2018-07-11T10:11:37.247Z,6.03
2018-07-11T10:14:08.295Z,8.67
2018-07-11T10:16:39.002Z,8.07
2018-07-11T10:19:08.828Z,9.37
2018-07-11T10:21:39.089Z,10.67
2018-07-11T10:24:08.467Z,9.47
2018-07-11T10:26:38.886Z,7.03
2018-07-11T10:29:09.513Z,6.57
2018-07-11T10:31:38.946Z,8.83
2018-07-11T10:34:10.099Z,7.67
2018-07-11T10:36:40.426Z,8.33
2018-07-11T10:39:12.354Z,11.83
2018-07-11T10:41:42.938Z,7.63
2018-07-11T10:44:13.305Z,10.33
2018-07-11T10:46:44.431Z,8.93
2018-07-11T10:49:14.221Z,10.33
2018-07-11T10:51:44.627Z,6.40
2018-07-11T10:54:14.197Z,10.30
2018-07-11T10:56:45.392Z,9.17
2018-07-11T10:59:16.526Z,14.80
2018-07-11T11:01:46.084Z,9.00
2018-07-11T11:04:19.302Z,9.40
2018-07-11T11:06:49.255Z,6.43
2018-07-11T11:09:19.035Z,7.00
2018-07-11T11:11:49.358Z,11.53
2018-07-11T11:14:21.934Z,9.03
2018-07-11T11:16:51.521Z,7.20
2018-07-11T11:19:21.282Z,11.60
2018-07-11T11:21:52.074Z,7.53
2018-07-11T11:24:22.515Z,4.10
2018-07-11T11:26:52.915Z,8.37
2018-07-11T11:29:24.266Z,8.70
2018-07-11T11:31:54.375Z,8.97
2018-07-11T11:34:24.310Z,8.97
2018-07-11T11:36:54.835Z,11.07
2018-07-11T11:39:24.602Z,8.73
2018-07-11T11:41:54.222Z,9.83
2018-07-11T11:44:24.194Z,12.90
2018-07-11T11:46:58.881Z,7.70
2018-07-11T11:49:28.838Z,6.27
2018-07-11T11:51:59.031Z,9.23
2018-07-11T11:54:29.194Z,6.57
2018-07-11T11:56:59.079Z,7.47
2018-07-11T11:59:29.217Z,8.93
2018-07-11T12:01:59.240Z,10.70
2018-07-11T12:04:29.424Z,9.80
2018-07-11T12:07:00.083Z,6.07
2018-07-11T12:09:29.973Z,5.70
2018-07-11T12:12:02.313Z,8.20
2018-07-11T12:14:32.726Z,6.63
2018-07-11T12:17:02.694Z,9.03
2018-07-11T12:19:32.590Z,13.20
2018-07-11T12:22:03.362Z,8.97
2018-07-11T12:24:34.619Z,8.53
2018-07-11T12:27:04.854Z,6.70
2018-07-11T12:29:34.317Z,4.80
2018-07-11T12:32:04.497Z,5.93
2018-07-11T12:34:34.174Z,7.27
2018-07-11T12:37:03.915Z,8.27
2018-07-11T12:39:33.786Z,11.30
2018-07-11T12:42:03.104Z,9.73
2018-07-11T12:44:33.304Z,6.80
2018-07-11T12:47:03.285Z,7.87
2018-07-11T12:49:34.228Z,8.80
2018-07-11T12:52:03.450Z,6.63
2018-07-11T12:54:33.986Z,7.77
2018-07-11T12:57:03.802Z,10.27
2018-07-11T12:59:32.666Z,8.50
2018-07-11T13:02:02.418Z,6.20
2018-07-11T13:04:32.164Z,6.40
2018-07-11T13:07:02.975Z,6.37
2018-07-11T13:09:32.323Z,10.00
2018-07-11T13:12:01.385Z,11.97
2018-07-11T13:14:31.281Z,8.57
2018-07-11T13:17:01.989Z,8.60
2018-07-11T13:19:33.183Z,12.33
2018-07-11T13:22:02.950Z,9.53
2018-07-11T13:24:33.120Z,6.90
2018-07-11T13:27:02.936Z,7.93
2018-07-11T13:29:32.716Z,8.83
2018-07-11T13:32:02.697Z,10.47
2018-07-11T13:34:32.465Z,11.47
2018-07-11T13:37:03.039Z,7.60
2018-07-11T13:39:32.502Z,8.80
2018-07-11T13:42:02.061Z,7.67
2018-07-11T13:44:31.291Z,9.03
2018-07-11T13:47:02.155Z,8.20
2018-07-11T13:49:31.779Z,8.13
2018-07-11T13:52:02.347Z,8.37
2018-07-11T13:54:31.842Z,11.63
2018-07-11T13:57:01.115Z,9.90
2018-07-11T13:59:31.481Z,8.00
2018-07-11T14:02:03.237Z,10.47
2018-07-11T14:04:32.760Z,10.73
2018-07-11T14:07:03.547Z,13.60
2018-07-11T14:09:32.781Z,19.57
2018-07-11T14:12:02.506Z,11.03
2018-07-11T14:14:33.152Z,19.67
2018-07-11T14:17:03.534Z,15.47
2018-07-11T14:19:35.813Z,22.20
2018-07-11T14:22:06.702Z,14.03
2018-07-11T14:24:36.250Z,17.30
2018-07-11T14:27:07.670Z,15.80
2018-07-11T14:29:37.369Z,13.50
2018-07-11T14:32:07.270Z,14.60
2018-07-11T14:34:36.683Z,16.07
2018-07-11T14:37:06.108Z,14.30
2018-07-11T14:39:36.405Z,15.13
2018-07-11T14:42:07.233Z,13.40
2018-07-11T14:44:37.737Z,12.63
2018-07-11T14:47:12.221Z,15.93
2018-07-11T14:49:43.289Z,12.07
2018-07-11T14:52:14.179Z,15.60
2018-07-11T14:54:44.170Z,12.37
2018-07-11T14:57:15.788Z,13.70
2018-07-11T14:59:46.391Z,13.40
2018-07-11T15:02:17.131Z,10.47
2018-07-11T15:04:47.398Z,12.73
2018-07-11T15:07:18.173Z,14.27
2018-07-11T15:09:50.006Z,9.90
2018-07-11T15:12:19.862Z,9.20
2018-07-11T15:14:49.146Z,10.73
2018-07-11T15:17:18.694Z,10.70
2018-07-11T15:19:48.974Z,11.47
2018-07-11T15:22:19.282Z,11.20
2018-07-11T15:24:50.022Z,10.77
2018-07-11T15:27:19.463Z,13.13
2018-07-11T15:29:49.881Z,11.30
2018-07-11T15:32:21.193Z,12.00
2018-07-11T15:34:51.663Z,13.07
2018-07-11T15:37:21.802Z,13.37
2018-07-11T15:39:52.191Z,14.57
2018-07-11T15:42:23.083Z,19.57
2018-07-11T15:44:54.389Z,15.20
2018-07-11T15:47:27.069Z,18.10
2018-07-11T15:49:57.474Z,21.23
2018-07-11T15:52:27.464Z,22.23
2018-07-11T15:54:59.449Z,18.27
2018-07-11T15:57:36.445Z,25.23
2018-07-11T16:00:10.074Z,15.73
2018-07-11T16:02:49.358Z,16.23
2018-07-11T16:05:21.405Z,14.17
2018-07-11T16:07:54.135Z,16.87
2018-07-11T16:10:29.041Z,11.73
2018-07-11T16:13:00.196Z,9.80
2018-07-11T16:15:31.483Z,11.87
2018-07-11T16:18:02.007Z,10.77
2018-07-11T16:20:32.573Z,13.60
2018-07-11T16:23:03.386Z,11.17
2018-07-11T16:25:34.138Z,13.90
2018-07-11T16:28:06.206Z,12.40
2018-07-11T16:30:37.044Z,13.07
2018-07-11T16:33:07.252Z,13.43
2018-07-11T16:35:38.734Z,12.77
2018-07-11T16:38:08.304Z,15.07
2018-07-11T16:40:38.778Z,15.53
2018-07-11T16:43:08.747Z,14.07
2018-07-11T16:45:38.758Z,13.03
2018-07-11T16:48:10.221Z,14.50
2018-07-11T16:50:40.958Z,13.87
2018-07-11T16:53:11.886Z,17.13
2018-07-11T16:55:41.668Z,15.17
2018-07-11T16:58:12.597Z,14.00
2018-07-11T17:00:41.824Z,15.50
2018-07-11T17:03:13.927Z,20.10
2018-07-11T17:05:56.038Z,19.57
2018-07-11T17:08:30.992Z,17.17
2018-07-11T17:11:10.371Z,23.37
2018-07-11T17:13:39.968Z,20.10
2018-07-11T17:16:09.353Z,21.50
2018-07-11T17:18:51.353Z,22.50
2018-07-11T17:21:44.320Z,21.37
2018-07-11T17:24:17.521Z,20.50
2018-07-11T17:26:49.831Z,18.27
2018-07-11T17:29:26.370Z,22.73
2018-07-11T17:32:01.730Z,21.07
2018-07-11T17:34:31.702Z,21.67
2018-07-11T17:37:07.170Z,20.13
2018-07-11T17:39:53.978Z,23.73
2018-07-11T17:42:25.801Z,22.97
2018-07-11T17:45:18.521Z,23.57
2018-07-11T17:50:05.262Z,23.73
2018-07-11T17:52:45.638Z,22.53
2018-07-11T17:55:24.003Z,22.47
2018-07-11T17:57:57.788Z,23.23
2018-07-11T18:00:38.082Z,22.30
2018-07-11T18:03:17.478Z,22.50
2018-07-11T18:05:50.661Z,23.20
2018-07-11T18:08:21.311Z,23.70
2018-07-11T18:10:54.373Z,24.90
2018-07-11T18:13:42.606Z,24.50
2018-07-11T18:16:29.527Z,24.13
2018-07-11T18:20:16.989Z,25.33
2018-07-11T18:22:54.095Z,23.13
2018-07-11T18:25:35.385Z,24.03
2018-07-11T18:29:15.273Z,26.67
2018-07-11T18:32:03.721Z,22.37
2018-07-11T18:36:54.810Z,22.00
2018-07-11T18:39:29.301Z,24.77
2018-07-11T18:44:17.675Z,23.07
2018-07-11T18:47:44.978Z,23.63
2018-07-11T18:50:32.377Z,25.97
2018-07-11T18:54:15.148Z,26.87
2018-07-11T18:56:59.311Z,23.57
2018-07-11T19:00:43.349Z,22.77
2018-07-11T19:03:22.323Z,22.57
2018-07-11T19:05:58.925Z,23.07
2018-07-11T19:08:40.380Z,24.30
2018-07-11T19:11:19.028Z,24.10
2018-07-11T19:13:52.577Z,23.20
2018-07-11T19:16:33.845Z,28.03
2018-07-11T19:19:08.960Z,25.57
2018-07-11T19:22:16.223Z,27.40
2018-07-11T19:24:54.274Z,26.73
2018-07-11T19:27:34.759Z,27.83
2018-07-11T19:30:11.041Z,21.43
2018-07-11T19:32:59.421Z,29.20
2018-07-11T19:37:44.879Z,27.83
2018-07-11T19:40:49.435Z,30.83
2018-07-11T19:45:41.059Z,26.37
2018-07-11T19:49:29.739Z,28.23
2018-07-11T19:52:05.160Z,21.70
2018-07-11T19:54:55.994Z,17.73
2018-07-11T19:57:26.328Z,17.93
2018-07-11T19:59:57.272Z,14.97
2018-07-11T20:02:27.733Z,15.13
2018-07-11T20:04:57.669Z,16.13
2018-07-11T20:07:28.075Z,12.90
2018-07-11T20:09:57.906Z,16.57
2018-07-11T20:12:28.128Z,15.70
2018-07-11T20:14:59.449Z,15.97
2018-07-11T20:17:29.402Z,14.73
2018-07-11T20:19:58.682Z,15.07
2018-07-11T20:22:29.582Z,21.03
2018-07-11T20:25:00.244Z,14.40
2018-07-11T20:27:30.519Z,17.47
2018-07-11T20:30:01.379Z,17.23
2018-07-11T20:32:31.474Z,15.77
2018-07-11T20:35:01.615Z,14.83
2018-07-11T20:37:31.819Z,16.33
2018-07-11T20:40:01.244Z,16.83
2018-07-11T20:42:31.092Z,21.10
2018-07-11T20:45:01.521Z,19.03
2018-07-11T20:47:31.901Z,16.10
2018-07-11T20:50:02.466Z,16.40
2018-07-11T20:52:32.907Z,16.13
2018-07-11T20:55:03.333Z,17.80
2018-07-11T20:57:34.846Z,18.73
2018-07-11T21:00:16.394Z,19.33
2018-07-11T21:03:11.522Z,15.13
2018-07-11T21:05:55.197Z,13.47
2018-07-11T21:08:39.137Z,12.13
2018-07-11T21:13:27.783Z,11.87
2018-07-11T21:17:17.230Z,12.10
2018-07-11T21:19:47.846Z,15.80
2018-07-11T21:22:17.610Z,13.23
2018-07-11T21:24:47.474Z,12.17
2018-07-11T21:27:17.366Z,16.00
2018-07-11T21:29:47.326Z,12.67
2018-07-11T21:32:18.003Z,17.20
2018-07-11T21:34:48.331Z,11.47
2018-07-11T21:37:19.765Z,14.10
2018-07-11T21:39:50.833Z,14.87
2018-07-11T21:42:20.463Z,12.13
2018-07-11T21:44:50.273Z,13.57
2018-07-11T21:47:19.474Z,10.90
2018-07-11T21:49:50.012Z,11.77
2018-07-11T21:52:19.869Z,14.10
2018-07-11T21:54:49.822Z,11.80
2018-07-11T21:57:19.660Z,11.83
2018-07-11T21:59:49.450Z,13.67
2018-07-11T22:02:19.427Z,12.30
2018-07-11T22:04:49.626Z,15.17
2018-07-11T22:07:20.051Z,12.57
2018-07-11T22:09:50.195Z,13.87
2018-07-11T22:12:20.367Z,13.87
2018-07-11T22:14:50.167Z,12.33
2018-07-11T22:17:32.412Z,11.40
2018-07-11T22:20:01.974Z,13.87
2018-07-11T22:22:31.226Z,16.63
2018-07-11T22:25:00.808Z,12.37
2018-07-11T22:27:29.751Z,14.33
2018-07-11T22:29:58.278Z,13.73
2018-07-11T22:32:27.951Z,18.83
2018-07-11T22:34:57.093Z,13.90
2018-07-11T22:37:26.358Z,16.03
2018-07-11T22:39:55.201Z,15.60
2018-07-11T22:42:24.137Z,14.13
2018-07-11T22:44:53.087Z,15.63
2018-07-11T22:47:22.136Z,17.47
2018-07-11T22:49:56.405Z,15.03
2018-07-11T22:52:25.050Z,12.87
2018-07-11T22:54:54.178Z,23.53
2018-07-11T22:57:23.132Z,15.67
2018-07-11T22:59:52.878Z,17.13
2018-07-11T23:02:21.394Z,16.13
2018-07-11T23:04:50.275Z,21.07
2018-07-11T23:07:19.535Z,16.57
2018-07-11T23:09:48.057Z,15.73
2018-07-11T23:12:17.001Z,15.30
2018-07-11T23:14:46.781Z,18.13
2018-07-11T23:17:15.374Z,17.20
2018-07-11T23:19:44.006Z,16.03
2018-07-11T23:22:12.984Z,15.30
2018-07-11T23:24:42.329Z,14.37
2018-07-11T23:27:10.768Z,14.83
2018-07-11T23:29:39.502Z,15.13
2018-07-11T23:32:08.030Z,15.07
2018-07-11T23:34:37.076Z,17.13
2018-07-11T23:37:06.113Z,16.93
2018-07-11T23:39:35.172Z,19.33
2018-07-11T23:42:04.221Z,19.53
2018-07-11T23:44:34.193Z,18.07
2018-07-11T23:47:02.698Z,17.67
2018-07-11T23:49:31.782Z,16.67
2018-07-11T23:52:00.698Z,20.07
2018-07-11T23:54:29.867Z,20.60
2018-07-11T23:56:58.820Z,16.97
2018-07-11T23:59:27.313Z,19.97
